Time;durP1;ratioP1;P1;durP2;ratioP2;P2;SDS_P1;SDS_P2;PMS_P1;PMS_P2;Temp;Humidity;BMP_temperature;BMP_pressure;BME280_temperature;BME280_humidity;BME280_pressure;Samples;Min_cycle;Max_cycle;Signal;HPM_P1;HPM_P2
2022/10/03 00:02:02;;;;;;;6.27;5.77;;;13.30;99.90;;;;;;5017969;28;20211;-86
2022/10/03 00:04:49;;;;;;;5.70;5.30;;;13.20;99.90;;;;;;5008348;28;20212;-86
2022/10/03 00:07:30;;;;;;;5.77;5.27;;;13.10;99.90;;;;;;5019152;28;20251;-85
2022/10/03 00:10:28;;;;;;;6.33;5.83;;;13.10;99.90;;;;;;5021843;28;20182;-85
2022/10/03 00:13:14;;;;;;;5.97;5.53;;;13.20;99.90;;;;;;5013127;28;20232;-85
2022/10/03 00:15:52;;;;;;;5.93;5.37;;;13.10;99.90;;;;;;5020799;28;20208;-86
2022/10/03 00:18:33;;;;;;;6.00;5.50;;;13.20;99.90;;;;;;5020817;28;20584;-86
2022/10/03 00:21:08;;;;;;;5.80;5.40;;;13.10;99.90;;;;;;5021664;28;20200;-86
2022/10/03 00:23:49;;;;;;;6.43;5.93;;;13.00;99.90;;;;;;5033078;28;20391;-89
2022/10/03 00:26:27;;;;;;;4.83;4.33;;;12.90;99.90;;;;;;5036904;28;20244;-86
2022/10/03 00:29:17;;;;;;;5.57;5.17;;;12.90;99.90;;;;;;5021191;28;20243;-87
2022/10/03 00:32:11;;;;;;;5.40;4.90;;;12.90;99.90;;;;;;5021156;28;20236;-86
2022/10/03 00:34:55;;;;;;;5.43;4.93;;;12.90;99.90;;;;;;5028028;28;20189;-86
2022/10/03 00:37:20;;;;;;;4.83;4.47;;;12.90;99.90;;;;;;5020343;28;20197;-85
2022/10/03 00:40:07;;;;;;;5.57;5.17;;;12.90;99.90;;;;;;5020882;28;20553;-85
2022/10/03 00:43:07;;;;;;;4.57;4.27;;;12.90;99.90;;;;;;5019742;28;20208;-86
2022/10/03 00:46:09;;;;;;;5.07;4.67;;;13.00;99.90;;;;;;5016541;28;20181;-85
2022/10/03 00:48:56;;;;;;;4.60;4.30;;;12.90;99.90;;;;;;5019950;28;20227;-85
2022/10/03 00:52:13;;;;;;;4.87;4.47;;;12.90;99.90;;;;;;5021952;28;20183;-86
2022/10/03 00:54:42;;;;;;;5.03;4.63;;;12.90;99.90;;;;;;4981362;28;20208;-86
2022/10/03 00:57:14;;;;;;;5.57;4.53;;;12.90;99.90;;;;;;5019638;28;20352;-86
2022/10/03 01:00:07;;;;;;;4.60;4.30;;;12.80;99.90;;;;;;5020581;28;20553;-87
2022/10/03 01:02:54;;;;;;;4.60;4.30;;;12.80;99.90;;;;;;5020517;28;20197;-87
2022/10/03 01:05:42;;;;;;;4.73;4.43;;;12.60;99.90;;;;;;4985447;28;20204;-85
2022/10/03 01:08:20;;;;;;;4.70;4.30;;;12.60;99.90;;;;;;5014065;28;20192;-85
2022/10/03 01:11:02;;;;;;;4.37;4.00;;;12.50;99.90;;;;;;5020545;28;20203;-86
2022/10/03 01:13:35;;;;;;;4.07;3.77;;;12.60;99.90;;;;;;5021206;28;20224;-85
2022/10/03 01:16:30;;;;;;;4.37;4.07;;;12.60;99.90;;;;;;5020107;28;20339;-86
2022/10/03 01:19:17;;;;;;;4.30;4.00;;;12.60;99.90;;;;;;5020185;28;20298;-85
2022/10/03 01:21:57;;;;;;;4.40;4.10;;;12.60;99.90;;;;;;5014990;28;20591;-86
2022/10/03 01:24:23;;;;;;;4.17;3.87;;;12.60;99.90;;;;;;5018811;28;20240;-87
2022/10/03 01:27:03;;;;;;;4.10;3.80;;;12.50;99.90;;;;;;5020836;28;20192;-85
2022/10/03 01:30:22;;;;;;;4.00;3.70;;;12.60;99.90;;;;;;5013385;28;20814;-86
2022/10/03 01:32:53;;;;;;;4.47;4.17;;;12.70;99.90;;;;;;5015473;28;20217;-85
2022/10/03 01:35:49;;;;;;;5.37;5.00;;;12.60;99.90;;;;;;5011101;28;20197;-86
2022/10/03 01:38:27;;;;;;;4.27;3.90;;;12.50;99.90;;;;;;5019851;28;20228;-86
2022/10/03 01:41:03;;;;;;;4.53;4.17;;;12.50;99.90;;;;;;5017227;28;20189;-85
2022/10/03 01:43:43;;;;;;;4.93;4.27;;;12.50;99.90;;;;;;5021009;28;20236;-85
2022/10/03 01:46:32;;;;;;;4.03;3.73;;;12.50;99.90;;;;;;5020276;28;20188;-85
2022/10/03 01:49:06;;;;;;;4.20;3.73;;;12.50;99.90;;;;;;5019632;28;20264;-85
2022/10/03 01:51:56;;;;;;;4.20;3.90;;;12.60;99.90;;;;;;5018532;28;20190;-86
2022/10/03 01:54:31;;;;;;;4.00;3.70;;;12.70;99.90;;;;;;5019718;28;20185;-87
2022/10/03 01:57:00;;;;;;;6.23;4.07;;;12.70;99.90;;;;;;5019347;28;20217;-86
2022/10/03 01:59:59;;;;;;;4.50;4.20;;;12.70;99.90;;;;;;5019962;28;20692;-87
2022/10/03 02:02:48;;;;;;;4.40;4.00;;;12.80;99.90;;;;;;5019705;28;20212;-85
2022/10/03 02:06:08;;;;;;;3.50;3.30;;;12.90;99.90;;;;;;5018309;28;20181;-86
2022/10/03 02:09:05;;;;;;;4.47;3.87;;;12.90;99.90;;;;;;4996347;28;20210;-85
2022/10/03 02:11:50;;;;;;;3.60;3.40;;;12.90;99.90;;;;;;5019779;28;20533;-87
2022/10/03 02:14:43;;;;;;;3.83;3.53;;;12.80;99.90;;;;;;5019969;28;20198;-85
2022/10/03 02:17:46;;;;;;;3.90;3.60;;;12.90;99.90;;;;;;5019751;28;20643;-85
2022/10/03 02:20:22;;;;;;;3.73;3.50;;;12.90;99.90;;;;;;5018387;28;20199;-85
2022/10/03 02:22:56;;;;;;;4.33;4.03;;;12.70;99.90;;;;;;5023725;28;20232;-86
2022/10/03 02:25:34;;;;;;;4.10;3.80;;;12.70;99.90;;;;;;5022572;28;20276;-86
2022/10/03 02:28:09;;;;;;;4.07;3.77;;;12.60;99.90;;;;;;5022786;28;20677;-85
2022/10/03 02:30:53;;;;;;;4.47;4.03;;;12.70;99.90;;;;;;5027361;28;20197;-86
2022/10/03 02:33:43;;;;;;;5.27;3.63;;;12.80;99.90;;;;;;5026586;28;20209;-86
2022/10/03 02:36:27;;;;;;;3.43;3.20;;;12.80;99.90;;;;;;5017767;28;20181;-87
2022/10/03 02:39:21;;;;;;;3.73;3.43;;;12.70;99.90;;;;;;5023477;28;20228;-88
2022/10/03 02:42:16;;;;;;;3.50;3.20;;;12.60;99.90;;;;;;5034237;28;20203;-87
2022/10/03 02:44:56;;;;;;;3.30;3.10;;;12.60;99.90;;;;;;5031658;28;20190;-87
2022/10/03 02:47:44;;;;;;;3.60;3.40;;;12.50;99.90;;;;;;5026988;28;20181;-86
2022/10/03 02:50:31;;;;;;;3.70;3.40;;;12.60;99.90;;;;;;5029216;28;20270;-87
2022/10/03 02:53:16;;;;;;;3.60;3.40;;;12.60;99.90;;;;;;5032375;28;20213;-85
2022/10/03 02:56:14;;;;;;;4.23;3.30;;;12.40;99.90;;;;;;5028053;28;20678;-85
2022/10/03 02:59:05;;;;;;;3.77;3.47;;;12.50;99.90;;;;;;5025926;28;20248;-85
2022/10/03 03:02:07;;;;;;;3.73;3.10;;;12.30;99.90;;;;;;5027574;28;20194;-86
2022/10/03 03:05:00;;;;;;;3.00;2.80;;;12.40;99.90;;;;;;5020759;28;20184;-87
2022/10/03 03:07:35;;;;;;;3.43;3.20;;;12.40;99.90;;;;;;5022442;28;20193;-86
2022/10/03 03:10:01;;;;;;;3.27;3.07;;;12.40;99.90;;;;;;5026309;28;20198;-85
2022/10/03 03:12:54;;;;;;;3.67;3.07;;;12.40;99.90;;;;;;5027765;28;20209;-86
2022/10/03 03:15:42;;;;;;;2.90;2.70;;;12.40;99.90;;;;;;5020637;28;20186;-87
2022/10/03 03:18:11;;;;;;;2.93;2.73;;;12.50;99.90;;;;;;5022864;28;20501;-87
2022/10/03 03:21:27;;;;;;;3.30;3.10;;;12.50;99.90;;;;;;5020832;28;20203;-85
2022/10/03 03:24:14;;;;;;;3.47;3.17;;;12.40;99.90;;;;;;4987722;28;20212;-87
2022/10/03 03:27:13;;;;;;;3.80;3.43;;;12.40;99.90;;;;;;5021553;28;20661;-87
2022/10/03 03:30:04;;;;;;;3.87;3.57;;;12.40;99.90;;;;;;5031041;28;20227;-86
2022/10/03 03:33:04;;;;;;;3.33;3.10;;;12.40;99.90;;;;;;5028336;28;20296;-88
2022/10/03 03:36:06;;;;;;;3.73;3.43;;;12.40;99.90;;;;;;5014611;28;20649;-87
2022/10/03 03:38:38;;;;;;;3.70;3.40;;;12.40;99.90;;;;;;5019421;28;20249;-86
2022/10/03 03:41:13;;;;;;;3.33;3.07;;;12.30;99.90;;;;;;5016555;28;20190;-88
2022/10/03 03:44:18;;;;;;;3.13;2.93;;;12.30;99.90;;;;;;5018514;28;20216;-88
2022/10/03 03:47:03;;;;;;;3.30;3.00;;;12.40;99.90;;;;;;5014295;28;20216;-88
2022/10/03 03:49:59;;;;;;;3.70;3.50;;;12.40;99.90;;;;;;5013729;28;20198;-88
2022/10/03 03:52:56;;;;;;;5.20;3.53;;;12.50;99.90;;;;;;5015835;28;20232;-87
2022/10/03 03:55:33;;;;;;;3.83;3.50;;;12.50;99.90;;;;;;5002312;28;20273;-88
2022/10/03 03:58:20;;;;;;;3.70;3.40;;;12.50;99.90;;;;;;5011885;28;20778;-88
2022/10/03 04:01:09;;;;;;;3.23;3.03;;;12.40;99.90;;;;;;5017666;28;20201;-88
2022/10/03 04:03:34;;;;;;;3.43;3.00;;;12.40;99.90;;;;;;5018655;28;20225;-87
2022/10/03 04:06:27;;;;;;;2.97;2.77;;;12.40;99.90;;;;;;5012633;28;20184;-87
2022/10/03 04:09:06;;;;;;;3.00;2.80;;;12.50;99.90;;;;;;5018687;28;20292;-87
2022/10/03 04:11:40;;;;;;;3.20;3.00;;;12.50;99.90;;;;;;5017035;28;20202;-87
2022/10/03 04:14:28;;;;;;;3.50;3.23;;;12.60;99.90;;;;;;5028366;28;20217;-87
2022/10/03 04:20:27;;;;;;;3.10;2.90;;;12.50;99.90;;;;;;5027394;28;20210;-87
2022/10/03 04:23:11;;;;;;;3.00;2.70;;;12.50;99.90;;;;;;5025876;28;20201;-88
2022/10/03 04:25:55;;;;;;;4.00;2.83;;;12.50;99.90;;;;;;5027340;28;20196;-88
2022/10/03 04:29:02;;;;;;;4.07;3.77;;;12.60;99.90;;;;;;5020046;28;20218;-88
2022/10/03 04:31:39;;;;;;;5.13;4.07;;;12.70;99.90;;;;;;4969484;28;20207;-87
2022/10/03 04:34:29;;;;;;;4.37;4.07;;;12.60;99.90;;;;;;4980683;28;20251;-86
2022/10/03 04:37:17;;;;;;;4.07;3.67;;;12.70;99.90;;;;;;5008235;28;20628;-87
2022/10/03 04:39:52;;;;;;;3.97;3.60;;;12.70;99.90;;;;;;5028212;28;20204;-86
2022/10/03 04:42:35;;;;;;;4.23;3.90;;;12.60;99.90;;;;;;5023487;28;20214;-87
2022/10/03 04:45:09;;;;;;;3.33;3.10;;;12.50;99.90;;;;;;5027941;28;20193;-86
2022/10/03 04:47:44;;;;;;;3.80;3.50;;;12.40;99.90;;;;;;5024307;28;20193;-88
2022/10/03 04:50:24;;;;;;;3.53;3.10;;;12.60;99.90;;;;;;5013037;28;20185;-86
2022/10/03 04:53:26;;;;;;;3.10;2.90;;;12.70;99.90;;;;;;5021356;28;20206;-87
2022/10/03 04:56:05;;;;;;;3.07;2.83;;;12.60;99.90;;;;;;5026364;28;20180;-87
2022/10/03 04:58:54;;;;;;;3.40;3.10;;;12.50;99.90;;;;;;5020835;28;20573;-86
2022/10/03 05:01:40;;;;;;;3.43;3.13;;;12.40;99.90;;;;;;5023306;28;20323;-86
2022/10/03 05:04:15;;;;;;;4.27;3.23;;;12.40;99.90;;;;;;5026626;28;20525;-88
2022/10/03 05:06:46;;;;;;;4.43;3.17;;;12.40;99.90;;;;;;5026911;28;20185;-89
2022/10/03 05:09:35;;;;;;;3.70;3.33;;;12.50;99.90;;;;;;5026418;28;20183;-86
2022/10/03 05:12:13;;;;;;;4.27;3.87;;;12.50;99.90;;;;;;5024260;28;20206;-87
2022/10/03 05:15:02;;;;;;;4.00;2.90;;;12.40;99.90;;;;;;5027173;28;20697;-86
2022/10/03 05:17:43;;;;;;;4.70;3.83;;;12.30;99.90;;;;;;5027639;28;20267;-87
2022/10/03 05:20:29;;;;;;;4.80;4.40;;;12.30;99.90;;;;;;5024592;28;20244;-87
2022/10/03 05:23:22;;;;;;;4.30;3.90;;;12.30;99.90;;;;;;5025433;28;20208;-87
2022/10/03 05:26:10;;;;;;;4.20;3.90;;;12.40;99.90;;;;;;5043052;28;20185;-86
2022/10/03 05:29:01;;;;;;;5.37;4.97;;;12.40;99.90;;;;;;5022704;28;20491;-89
2022/10/03 05:31:26;;;;;;;4.17;3.87;;;12.40;99.90;;;;;;5026593;28;20197;-88
2022/10/03 05:34:17;;;;;;;4.10;3.70;;;12.50;99.90;;;;;;5026708;28;20268;-87
2022/10/03 05:37:19;;;;;;;4.03;3.60;;;12.50;99.90;;;;;;5004266;28;20256;-86
2022/10/03 05:40:00;;;;;;;4.73;4.30;;;12.60;99.90;;;;;;5020406;28;20245;-86
2022/10/03 05:42:45;;;;;;;4.57;4.10;;;12.60;99.90;;;;;;5008548;28;20199;-85
2022/10/03 05:45:48;;;;;;;3.63;3.20;;;12.60;99.90;;;;;;5018099;28;20238;-86
2022/10/03 05:48:33;;;;;;;3.47;3.27;;;12.60;99.90;;;;;;5019944;28;20200;-86
2022/10/03 05:51:20;;;;;;;3.80;3.50;;;12.60;99.90;;;;;;5019855;28;20168;-85
2022/10/03 05:54:01;;;;;;;3.67;3.40;;;12.60;99.90;;;;;;5020102;28;20192;-86
2022/10/03 05:56:42;;;;;;;3.53;3.23;;;12.60;99.90;;;;;;5020534;28;20168;-86
2022/10/03 05:59:45;;;;;;;4.10;3.70;;;12.60;99.90;;;;;;5036670;28;20408;-89
2022/10/03 06:02:22;;;;;;;3.30;3.03;;;12.70;99.90;;;;;;5029413;28;20254;-86
2022/10/03 06:05:00;;;;;;;4.63;3.40;;;12.60;99.90;;;;;;5019168;28;20187;-86
2022/10/03 06:07:50;;;;;;;4.50;3.90;;;12.70;99.90;;;;;;5019774;28;20181;-87
2022/10/03 06:10:41;;;;;;;3.93;3.60;;;12.70;99.90;;;;;;5016456;28;20187;-86
2022/10/03 06:13:26;;;;;;;3.60;3.30;;;12.50;99.90;;;;;;5019595;28;20226;-87
2022/10/03 06:16:22;;;;;;;4.53;4.17;;;12.60;99.90;;;;;;5018219;28;20232;-87
2022/10/03 06:19:06;;;;;;;4.07;3.47;;;12.60;99.90;;;;;;5018243;28;20255;-86
2022/10/03 06:21:40;;;;;;;5.53;4.10;;;12.60;99.90;;;;;;5030634;28;20224;-86
2022/10/03 06:24:24;;;;;;;5.10;4.70;;;12.70;99.90;;;;;;5022923;28;20183;-87
2022/10/03 06:27:08;;;;;;;5.90;4.00;;;12.70;99.90;;;;;;5019300;28;20219;-88
2022/10/03 06:29:58;;;;;;;4.70;4.30;;;12.60;99.90;;;;;;5022744;28;20274;-86
2022/10/03 06:32:45;;;;;;;5.47;4.97;;;12.70;99.90;;;;;;5021134;28;20232;-88
2022/10/03 06:35:10;;;;;;;4.60;4.20;;;12.80;99.90;;;;;;5020581;28;20685;-86
2022/10/03 06:38:19;;;;;;;6.33;4.63;;;12.90;99.90;;;;;;5019853;28;20201;-86
2022/10/03 06:41:23;;;;;;;6.47;4.40;;;12.80;99.90;;;;;;4972387;28;20775;-85
2022/10/03 06:44:25;;;;;;;5.27;4.77;;;12.80;99.90;;;;;;5011466;28;20223;-86
2022/10/03 06:47:19;;;;;;;6.03;5.03;;;12.80;99.90;;;;;;5021799;28;20188;-86
2022/10/03 06:50:27;;;;;;;6.40;4.37;;;12.80;99.90;;;;;;5026088;28;20186;-87
2022/10/03 06:53:13;;;;;;;5.87;5.37;;;12.90;99.90;;;;;;5019504;28;20220;-87
2022/10/03 06:55:52;;;;;;;6.40;5.50;;;12.90;99.90;;;;;;5018714;28;20188;-88
2022/10/03 06:58:55;;;;;;;6.50;5.87;;;12.90;99.90;;;;;;5021528;28;20204;-86
2022/10/03 07:01:24;;;;;;;5.00;4.60;;;12.80;99.90;;;;;;5020467;28;20464;-87
2022/10/03 07:04:27;;;;;;;5.13;4.57;;;12.80;99.90;;;;;;5020953;28;20192;-87
2022/10/03 07:07:32;;;;;;;4.80;4.50;;;13.00;99.90;;;;;;5027570;28;20185;-88
2022/10/03 07:10:19;;;;;;;5.03;4.63;;;13.10;99.90;;;;;;5037248;28;20253;-88
2022/10/03 07:13:19;;;;;;;5.30;4.90;;;13.10;99.90;;;;;;5029388;28;20211;-90
2022/10/03 07:15:50;;;;;;;5.20;4.70;;;13.30;99.90;;;;;;5023637;28;20690;-87
2022/10/03 07:18:54;;;;;;;5.20;4.70;;;13.30;99.90;;;;;;5026607;28;20233;-86
2022/10/03 07:21:41;;;;;;;5.10;4.50;;;13.30;99.90;;;;;;5014497;28;20264;-87
2022/10/03 07:24:15;;;;;;;5.20;4.70;;;13.20;99.90;;;;;;5025341;28;20214;-87
2022/10/03 07:27:02;;;;;;;4.70;4.30;;;13.30;99.90;;;;;;5026744;28;20196;-86
2022/10/03 07:29:28;;;;;;;5.40;4.87;;;13.30;99.90;;;;;;5016906;28;20178;-88
2022/10/03 07:31:59;;;;;;;8.60;7.90;;;13.30;99.90;;;;;;5026774;28;20228;-89
2022/10/03 07:34:47;;;;;;;5.37;4.90;;;13.30;99.90;;;;;;5023219;28;20221;-87
2022/10/03 07:40:29;;;;;;;5.27;4.87;;;13.30;99.90;;;;;;5021948;28;20835;-87
2022/10/03 07:43:02;;;;;;;5.70;5.20;;;13.30;99.90;;;;;;5025815;28;20228;-88
2022/10/03 07:45:33;;;;;;;5.90;5.40;;;13.30;99.90;;;;;;5024142;28;20220;-87
2022/10/03 07:48:36;;;;;;;5.40;4.90;;;13.30;99.90;;;;;;5027733;28;20189;-87
2022/10/03 07:51:22;;;;;;;5.50;5.00;;;13.20;99.90;;;;;;5026680;28;20208;-87
2022/10/03 07:54:20;;;;;;;6.47;5.87;;;13.30;99.90;;;;;;5026073;28;20257;-87
2022/10/03 07:56:47;;;;;;;7.70;7.00;;;13.40;99.90;;;;;;4987601;28;20189;-86
2022/10/03 07:59:42;;;;;;;8.00;6.87;;;13.50;99.90;;;;;;5022659;28;20249;-88
2022/10/03 08:02:29;;;;;;;7.60;6.90;;;13.50;99.90;;;;;;5025592;28;20209;-87
2022/10/03 08:05:16;;;;;;;8.43;7.63;;;13.60;99.90;;;;;;5021177;28;20196;-87
2022/10/03 08:08:15;;;;;;;9.70;8.00;;;13.60;99.90;;;;;;5021515;28;20576;-87
2022/10/03 08:11:20;;;;;;;9.73;8.73;;;13.70;99.90;;;;;;5019596;28;20198;-87
2022/10/03 08:14:15;;;;;;;10.27;9.30;;;13.80;99.90;;;;;;5017817;28;20718;-86
2022/10/03 08:16:53;;;;;;;11.40;9.73;;;14.00;99.90;;;;;;5021977;28;20184;-86
2022/10/03 08:19:58;;;;;;;14.67;11.30;;;13.90;99.90;;;;;;5018930;28;20240;-87
2022/10/03 08:22:43;;;;;;;11.60;10.27;;;13.90;99.90;;;;;;5022691;28;20237;-86
2022/10/03 08:25:28;;;;;;;14.97;13.37;;;13.90;99.90;;;;;;5019179;28;20182;-87
2022/10/03 08:28:18;;;;;;;15.87;13.57;;;14.00;99.90;;;;;;5020566;28;20222;-88
2022/10/03 08:31:11;;;;;;;19.87;14.87;;;14.00;99.90;;;;;;5020179;28;20210;-88
2022/10/03 08:34:01;;;;;;;16.40;14.70;;;14.00;99.90;;;;;;5020170;28;20211;-87
2022/10/03 08:36:27;;;;;;;16.80;14.30;;;14.10;99.90;;;;;;5017165;28;20193;-87
2022/10/03 08:39:23;;;;;;;17.53;15.73;;;14.10;99.90;;;;;;5022050;28;20304;-88
2022/10/03 08:42:16;;;;;;;17.97;16.07;;;14.10;99.90;;;;;;5013539;28;20265;-87
2022/10/03 08:44:48;;;;;;;18.07;16.13;;;14.10;99.90;;;;;;5022440;28;20175;-91
2022/10/03 08:47:39;;;;;;;17.87;16.10;;;14.10;99.90;;;;;;5035820;28;20186;-91
2022/10/03 08:50:29;;;;;;;19.93;15.57;;;14.10;99.90;;;;;;5039299;28;20807;-87
2022/10/03 08:53:35;;;;;;;17.90;16.00;;;14.00;99.90;;;;;;5019427;28;20295;-87
2022/10/03 08:56:22;;;;;;;17.10;15.40;;;14.10;99.90;;;;;;5014839;28;20177;-89
2022/10/03 08:59:08;;;;;;;19.57;14.07;;;14.20;99.90;;;;;;5031688;28;20201;-89
2022/10/03 09:02:24;;;;;;;16.50;13.57;;;14.30;99.90;;;;;;5033464;28;20175;-90
2022/10/03 09:05:15;;;;;;;18.33;14.37;;;14.30;99.90;;;;;;5032650;28;20185;-91
2022/10/03 09:07:53;;;;;;;15.90;14.30;;;14.30;99.90;;;;;;5021979;28;20192;-86
2022/10/03 09:10:53;;;;;;;18.93;14.53;;;14.40;99.90;;;;;;5019834;28;20192;-89
2022/10/03 09:13:56;;;;;;;18.00;15.00;;;14.50;99.90;;;;;;5016457;28;20426;-87
2022/10/03 09:16:40;;;;;;;18.30;15.73;;;14.60;99.90;;;;;;5018513;28;20176;-87
2022/10/03 09:19:24;;;;;;;19.67;17.27;;;14.90;99.90;;;;;;5020873;28;20216;-88
2022/10/03 09:22:09;;;;;;;22.03;16.13;;;15.00;99.90;;;;;;5032713;28;20486;-88
2022/10/03 09:24:43;;;;;;;21.93;17.17;;;15.10;98.80;;;;;;5020958;28;20204;-87
2022/10/03 09:27:35;;;;;;;18.90;16.00;;;15.50;99.80;;;;;;5017404;28;20177;-88
2022/10/03 09:30:36;;;;;;;17.83;15.93;;;15.80;98.90;;;;;;5021270;28;20189;-89
2022/10/03 09:33:39;;;;;;;17.90;15.03;;;16.10;97.90;;;;;;5019353;28;20225;-87
2022/10/03 09:36:23;;;;;;;16.07;14.40;;;16.10;95.70;;;;;;5020416;28;20188;-87
2022/10/03 09:39:12;;;;;;;17.60;15.10;;;15.50;95.60;;;;;;5017644;28;20595;-88
2022/10/03 09:42:15;;;;;;;19.07;14.83;;;15.30;96.20;;;;;;5006250;28;20271;-88
2022/10/03 09:44:59;;;;;;;17.07;14.27;;;15.00;98.80;;;;;;5018707;28;20189;-87
2022/10/03 09:47:47;;;;;;;18.13;14.70;;;14.80;99.90;;;;;;5021072;28;20189;-87
2022/10/03 09:50:27;;;;;;;16.80;14.20;;;14.90;99.90;;;;;;5013614;28;20180;-87
2022/10/03 09:53:26;;;;;;;16.07;12.97;;;15.10;97.20;;;;;;5016921;28;20207;-86
2022/10/03 09:56:00;;;;;;;16.13;13.13;;;15.50;97.10;;;;;;5015966;28;20178;-88
2022/10/03 09:59:04;;;;;;;16.77;12.97;;;15.80;97.30;;;;;;4997716;28;20640;-88
2022/10/03 10:01:45;;;;;;;14.90;11.63;;;16.10;94.70;;;;;;5015544;28;20177;-89
2022/10/03 10:04:39;;;;;;;13.63;11.17;;;16.40;93.30;;;;;;5014794;28;20185;-87
2022/10/03 10:07:20;;;;;;;14.80;10.60;;;16.50;90.90;;;;;;5011676;28;20275;-87
2022/10/03 10:10:03;;;;;;;11.67;10.40;;;16.70;88.20;;;;;;5016986;28;20170;-86
2022/10/03 10:13:19;;;;;;;16.00;10.82;;;16.70;89.70;;;;;;5015005;28;20267;-87
2022/10/03 10:16:13;;;;;;;14.53;11.73;;;16.80;88.70;;;;;;4936729;29;20295;-87
2022/10/03 10:19:05;;;;;;;13.33;10.93;;;16.40;90.30;;;;;;4977075;28;20218;-87
2022/10/03 10:21:45;;;;;;;12.33;8.70;;;16.60;91.20;;;;;;5013677;28;20183;-87
2022/10/03 10:24:30;;;;;;;10.87;8.73;;;16.90;87.30;;;;;;5012314;28;20722;-87
2022/10/03 10:27:01;;;;;;;13.13;9.23;;;17.20;86.00;;;;;;5013316;28;20189;-87
2022/10/03 10:29:54;;;;;;;9.90;8.90;;;17.50;83.70;;;;;;5020273;28;20189;-88
2022/10/03 10:32:26;;;;;;;8.00;7.28;;;17.50;82.20;;;;;;5016251;28;20223;-86
2022/10/03 10:35:29;;;;;;;13.25;9.00;;;17.40;80.50;;;;;;5019514;28;20194;-87
2022/10/03 10:38:32;;;;;;;12.00;8.00;;;17.20;82.70;;;;;;5018357;28;20261;-86
2022/10/03 10:41:38;;;;;;;11.73;7.55;;;17.30;82.70;;;;;;5016526;28;20636;-87
2022/10/03 10:44:35;;;;;;;11.15;8.48;;;17.30;82.90;;;;;;5004217;28;20200;-87
2022/10/03 10:47:51;;;;;;;12.25;8.10;;;16.80;86.50;;;;;;5018895;28;20232;-87
2022/10/03 10:50:43;;;;;;;13.88;7.35;;;17.10;86.50;;;;;;4997094;28;20220;-86
2022/10/03 10:53:08;;;;;;;8.95;6.80;;;17.40;82.90;;;;;;5017189;28;20196;-86
2022/10/03 10:55:52;;;;;;;10.43;7.40;;;17.40;79.40;;;;;;5016835;28;20204;-86
2022/10/03 10:58:46;;;;;;;8.50;6.82;;;17.50;80.40;;;;;;5015398;28;20208;-86
2022/10/03 11:01:57;;;;;;;9.95;7.55;;;17.60;77.20;;;;;;5017416;28;20172;-86
2022/10/03 11:04:41;;;;;;;13.35;7.28;;;17.70;80.40;;;;;;5017824;28;20180;-86
2022/10/03 11:07:25;;;;;;;20.85;8.30;;;17.70;75.90;;;;;;5017807;28;20188;-86
2022/10/03 11:10:00;;;;;;;10.40;7.15;;;18.20;78.90;;;;;;5027966;28;20180;-86
2022/10/03 11:12:55;;;;;;;8.90;5.88;;;18.60;76.10;;;;;;5040020;28;20193;-86
2022/10/03 11:15:48;;;;;;;8.88;6.93;;;18.80;66.80;;;;;;5037222;28;20194;-86
2022/10/03 11:18:22;;;;;;;11.25;6.32;;;19.20;70.00;;;;;;5019059;28;20261;-86
2022/10/03 11:21:33;;;;;;;9.57;6.15;;;19.10;67.00;;;;;;5020180;28;20310;-86
2022/10/03 11:24:10;;;;;;;7.95;5.07;;;19.20;68.20;;;;;;5016622;28;20209;-87
2022/10/03 11:26:42;;;;;;;7.40;5.40;;;19.20;65.00;;;;;;5020029;28;20166;-86
2022/10/03 11:29:23;;;;;;;7.80;5.85;;;19.30;64.30;;;;;;5022080;28;20264;-86
2022/10/03 11:32:28;;;;;;;7.22;5.85;;;19.60;65.80;;;;;;5032854;28;20239;-89
2022/10/03 11:35:12;;;;;;;7.95;5.97;;;20.00;61.60;;;;;;5036447;28;20193;-88
2022/10/03 11:37:54;;;;;;;6.55;5.68;;;20.10;61.70;;;;;;5037093;28;20207;-87
2022/10/03 11:40:27;;;;;;;8.18;6.07;;;20.30;61.70;;;;;;5032898;28;20177;-87
2022/10/03 11:43:13;;;;;;;6.88;5.00;;;20.00;60.70;;;;;;5021117;28;20201;-86
2022/10/03 11:45:51;;;;;;;7.50;5.93;;;20.30;61.10;;;;;;5018687;28;20806;-87
2022/10/03 11:48:38;;;;;;;9.35;5.35;;;20.30;57.90;;;;;;5019836;28;20179;-87
2022/10/03 11:51:17;;;;;;;6.20;5.10;;;20.00;58.00;;;;;;5019946;28;20604;-86
2022/10/03 11:53:46;;;;;;;7.80;5.38;;;20.30;57.90;;;;;;5019078;28;20488;-87
2022/10/03 11:56:40;;;;;;;7.13;4.95;;;20.90;56.50;;;;;;5018774;28;20588;-86
2022/10/03 11:59:29;;;;;;;6.03;4.90;;;21.20;56.70;;;;;;5017516;28;20213;-86
2022/10/03 12:02:20;;;;;;;7.50;4.80;;;21.40;52.20;;;;;;5018804;28;20211;-86
2022/10/03 12:04:58;;;;;;;6.47;4.38;;;21.30;51.50;;;;;;4999106;28;20205;-86
2022/10/03 12:10:34;;;;;;;5.15;4.50;;;21.10;52.40;;;;;;5019132;28;20553;-87
2022/10/03 12:13:07;;;;;;;6.65;4.78;;;21.90;49.60;;;;;;5019164;28;20225;-87
2022/10/03 12:15:47;;;;;;;6.88;4.72;;;21.90;49.90;;;;;;5019949;28;20165;-86
2022/10/03 12:18:21;;;;;;;5.45;4.95;;;21.20;52.40;;;;;;5019362;28;20683;-86
2022/10/03 12:20:46;;;;;;;7.80;5.30;;;20.70;53.30;;;;;;5019499;28;20229;-87
2022/10/03 12:23:21;;;;;;;7.57;5.00;;;20.20;58.00;;;;;;5019552;28;20232;-88
2022/10/03 12:25:50;;;;;;;7.82;5.57;;;20.00;55.20;;;;;;5018680;28;20259;-87
2022/10/03 12:28:33;;;;;;;5.28;4.78;;;19.90;58.00;;;;;;5017980;28;20215;-86
2022/10/03 12:31:23;;;;;;;6.30;5.05;;;20.00;58.60;;;;;;5021592;28;20204;-87
2022/10/03 12:34:02;;;;;;;7.00;4.93;;;19.70;60.40;;;;;;5017334;28;20200;-87
2022/10/03 12:36:34;;;;;;;7.68;5.28;;;19.50;62.70;;;;;;5030469;28;20168;-89
2022/10/03 12:39:26;;;;;;;7.18;4.95;;;19.00;61.40;;;;;;5026253;28;20225;-89
2022/10/03 12:42:08;;;;;;;7.35;5.40;;;18.80;63.40;;;;;;5016201;28;20206;-87
2022/10/03 12:44:52;;;;;;;7.28;5.63;;;18.50;67.90;;;;;;5024959;28;20182;-86
2022/10/03 12:47:44;;;;;;;8.95;5.20;;;18.30;69.90;;;;;;5005042;28;20240;-87
2022/10/03 12:50:29;;;;;;;6.63;5.18;;;18.30;69.70;;;;;;5022103;28;20165;-87
2022/10/03 12:53:00;;;;;;;6.70;5.78;;;18.30;71.00;;;;;;5021701;28;20700;-87
2022/10/03 12:55:28;;;;;;;7.63;5.13;;;18.50;70.20;;;;;;5022183;28;20182;-86
2022/10/03 12:58:22;;;;;;;6.18;5.47;;;18.30;67.30;;;;;;5015888;28;20186;-87
2022/10/03 13:01:15;;;;;;;7.78;5.25;;;18.40;67.70;;;;;;5003149;28;20199;-87
2022/10/03 13:03:54;;;;;;;10.65;5.45;;;18.40;67.00;;;;;;5035604;28;20420;-87
2022/10/03 13:06:32;;;;;;;6.18;5.00;;;18.80;62.70;;;;;;5030970;28;20911;-87
2022/10/03 13:09:26;;;;;;;5.45;4.95;;;19.60;60.40;;;;;;5018158;28;20193;-87
2022/10/03 13:12:19;;;;;;;10.30;4.97;;;20.70;57.20;;;;;;5029697;28;20214;-87
2022/10/03 13:15:22;;;;;;;5.63;4.55;;;20.80;52.60;;;;;;5015929;28;20201;-87
2022/10/03 13:18:01;;;;;;;6.60;5.10;;;20.30;54.20;;;;;;5016113;28;20181;-87
2022/10/03 13:20:35;;;;;;;5.28;4.78;;;20.10;54.80;;;;;;5019458;28;20182;-87
2022/10/03 13:23:29;;;;;;;6.90;4.82;;;19.70;55.10;;;;;;5018415;28;20234;-88
2022/10/03 13:26:09;;;;;;;7.45;4.57;;;19.70;57.70;;;;;;5016230;28;20201;-88
2022/10/03 13:28:58;;;;;;;6.53;4.75;;;20.20;50.40;;;;;;5015242;28;20207;-88
2022/10/03 13:31:31;;;;;;;8.02;4.85;;;20.40;49.70;;;;;;5006719;28;20220;-88
2022/10/03 13:34:09;;;;;;;7.68;4.47;;;21.20;48.10;;;;;;5014183;28;20197;-89
2022/10/03 13:36:43;;;;;;;10.20;4.75;;;21.20;48.30;;;;;;5010822;28;20196;-89
2022/10/03 13:39:36;;;;;;;4.10;3.70;;;21.30;46.60;;;;;;5014145;28;20303;-88
2022/10/03 13:42:18;;;;;;;5.10;4.15;;;21.40;45.70;;;;;;5010670;28;20210;-88
2022/10/03 13:44:56;;;;;;;7.50;4.47;;;21.60;45.30;;;;;;5012650;28;20514;-87
2022/10/03 13:47:46;;;;;;;8.35;4.50;;;22.10;42.40;;;;;;5005458;28;20197;-88
2022/10/03 13:50:20;;;;;;;8.07;4.40;;;21.90;42.90;;;;;;5010974;28;20186;-87
2022/10/03 13:53:27;;;;;;;5.22;4.10;;;22.10;42.20;;;;;;5008759;28;20208;-87
2022/10/03 13:56:03;;;;;;;8.18;4.90;;;22.60;42.00;;;;;;5008035;28;20219;-87
2022/10/03 13:58:47;;;;;;;4.78;3.85;;;22.80;40.50;;;;;;5012554;28;20271;-89
2022/10/03 14:01:39;;;;;;;7.18;4.22;;;22.90;40.80;;;;;;5012373;28;20185;-88
2022/10/03 14:04:34;;;;;;;4.28;3.88;;;22.90;40.90;;;;;;5011045;28;20189;-88
2022/10/03 14:07:13;;;;;;;4.75;4.10;;;23.20;40.40;;;;;;5013101;28;20185;-88
2022/10/03 14:09:50;;;;;;;7.50;4.60;;;22.80;40.00;;;;;;5010429;28;20178;-87
2022/10/03 14:12:33;;;;;;;5.35;4.30;;;22.80;41.30;;;;;;5006875;28;20224;-88
2022/10/03 14:15:19;;;;;;;5.82;4.70;;;22.80;42.30;;;;;;5020672;28;20231;-88
2022/10/03 14:18:04;;;;;;;5.57;4.20;;;23.30;40.20;;;;;;5028272;28;20182;-87
2022/10/03 14:20:43;;;;;;;4.93;4.30;;;23.10;39.60;;;;;;5013868;28;20178;-89
2022/10/03 14:23:27;;;;;;;5.07;4.10;;;23.60;39.80;;;;;;5007079;28;20739;-88
2022/10/03 14:26:10;;;;;;;8.38;4.32;;;23.20;43.20;;;;;;5008749;28;20192;-89
2022/10/03 14:29:00;;;;;;;4.35;3.80;;;23.20;43.90;;;;;;5012027;28;20192;-87
2022/10/03 14:31:53;;;;;;;4.80;3.95;;;22.80;42.70;;;;;;5012991;28;20408;-88